createdAt,value
2017-07-21T17:08:29.868Z,87.76
2017-07-21T17:08:48.651Z,87.96
2017-07-21T17:09:07.925Z,88.44
2017-07-21T17:09:26.696Z,88.73
2017-07-21T17:09:45.482Z,88.44
2017-07-21T17:10:04.796Z,88.64
2017-07-21T17:10:23.615Z,88.39
2017-07-21T17:10:42.920Z,87.81
2017-07-21T17:11:02.222Z,87.41
2017-07-21T17:11:21.516Z,87.16
2017-07-21T17:11:40.286Z,87.85
2017-07-21T17:11:59.631Z,87.55
2017-07-21T17:12:18.903Z,87.26
2017-07-21T17:12:38.469Z,87.21
2017-07-21T17:12:58.671Z,86.68
2017-07-21T17:13:18.055Z,87.75
2017-07-21T17:13:36.877Z,87.3
2017-07-21T17:13:57.532Z,87.21
2017-07-21T17:14:16.534Z,87.4
2017-07-21T17:14:35.973Z,87.12
2017-07-21T17:14:55.350Z,87.21
2017-07-21T17:15:14.810Z,88.09
2017-07-21T17:15:33.675Z,87.4
2017-07-21T17:15:52.488Z,85.85
2017-07-21T17:16:11.330Z,85.32
2017-07-21T17:16:30.912Z,85.03
2017-07-21T17:16:51.264Z,85.28
2017-07-21T17:17:10.632Z,85.77
2017-07-21T17:17:29.948Z,87.03
2017-07-21T17:17:49.516Z,87.27
2017-07-21T17:18:07.373Z,87.08
2017-07-21T17:18:26.787Z,87.23
2017-07-21T17:18:45.637Z,87.13
2017-07-21T17:19:18.935Z,87.96
2017-07-21T17:19:37.189Z,88.1
2017-07-21T17:19:56.451Z,88.88
2017-07-21T17:20:15.748Z,89.47
2017-07-21T17:20:35.049Z,89.47
2017-07-21T17:20:54.373Z,89.47
2017-07-21T17:21:13.679Z,88.98
2017-07-21T17:21:32.464Z,89.37
2017-07-21T17:21:51.255Z,89.85
2017-07-21T17:22:10.032Z,89.85
2017-07-21T17:22:28.815Z,90.24
2017-07-21T17:22:48.126Z,90.34
2017-07-21T17:23:07.469Z,89.95
2017-07-21T17:23:26.300Z,89.9
2017-07-21T17:23:45.587Z,90.09
2017-07-21T17:24:04.360Z,89.31
2017-07-21T17:24:23.670Z,89.61
2017-07-21T17:24:42.494Z,89.36
2017-07-21T17:25:15.775Z,88.39
2017-07-21T17:25:35.082Z,88.58
2017-07-21T17:25:54.357Z,89.36
2017-07-21T17:26:13.111Z,88.64
2017-07-21T17:26:32.418Z,87.66
2017-07-21T17:26:51.690Z,87.37
2017-07-21T17:27:10.978Z,86.69
2017-07-21T17:27:30.251Z,85.82
2017-07-21T17:27:49.549Z,87.47
2017-07-21T17:28:08.844Z,87.86
2017-07-21T17:28:27.622Z,87.86
2017-07-21T17:28:46.912Z,87.96
2017-07-21T17:29:05.691Z,87.27
2017-07-21T17:29:25.155Z,86.07
2017-07-21T17:29:44.468Z,85.92
2017-07-21T17:30:03.745Z,86.07
2017-07-21T17:30:23.041Z,85.88
2017-07-21T17:31:15.339Z,86.16
2017-07-21T17:31:34.093Z,85.97
2017-07-21T17:31:53.392Z,85.97
2017-07-21T17:32:12.675Z,86.07
2017-07-21T17:32:31.492Z,86.07
2017-07-21T17:32:50.769Z,86.46
2017-07-21T17:33:09.582Z,86.12
2017-07-21T17:33:28.886Z,86.36
2017-07-21T17:33:48.162Z,85.68
2017-07-21T17:34:07.432Z,85.88
2017-07-21T17:34:26.710Z,86.07
2017-07-21T17:34:45.493Z,85.72
2017-07-21T17:35:04.276Z,85.92
2017-07-21T17:35:23.582Z,85.33
2017-07-21T17:35:42.879Z,85.43
2017-07-21T17:36:02.169Z,85.04
2017-07-21T17:36:20.412Z,85.04
2017-07-21T17:36:39.201Z,84.99
2017-07-21T17:36:58.184Z,85.47
2017-07-21T17:37:17.465Z,85.67
2017-07-21T17:37:36.778Z,85.71
2017-07-21T17:37:56.099Z,86
2017-07-21T17:38:14.844Z,84.89
2017-07-21T17:38:33.609Z,85.28
2017-07-21T17:38:52.989Z,85.86
2017-07-21T17:39:12.283Z,86.35
2017-07-21T17:39:31.601Z,86.6
2017-07-21T17:39:50.368Z,86.99
2017-07-21T17:40:09.642Z,88.4
2017-07-21T17:40:28.938Z,88.79
2017-07-21T17:41:02.200Z,89.56
2017-07-21T17:41:21.482Z,90.48
2017-07-21T17:41:40.785Z,90.2
2017-07-21T17:42:00.066Z,90.24
2017-07-21T17:42:19.385Z,90.34
2017-07-21T17:42:38.186Z,89.85
2017-07-21T17:42:57.592Z,90.48
2017-07-21T17:43:16.909Z,89.8
2017-07-21T17:43:36.288Z,90.48
2017-07-21T17:43:55.591Z,90.04
2017-07-21T17:44:14.879Z,90.04
2017-07-21T17:44:34.189Z,90.23
2017-07-21T17:44:53.583Z,89.94
2017-07-21T17:45:12.926Z,89.65
2017-07-21T17:45:31.713Z,89.55
2017-07-21T17:45:51.036Z,89.65
2017-07-21T17:46:09.826Z,89.94
2017-07-21T17:46:29.141Z,90.62
2017-07-21T17:46:48.417Z,90.37
2017-07-21T17:47:07.771Z,89.31
2017-07-21T17:47:26.552Z,89.11
2017-07-21T17:47:45.908Z,88.72
2017-07-21T17:48:05.291Z,88.04
2017-07-21T17:48:24.119Z,88.33
2017-07-21T17:48:43.557Z,89.11
2017-07-21T17:49:02.350Z,88.82
2017-07-21T17:49:21.709Z,89.65
2017-07-21T17:49:40.587Z,90.18
2017-07-21T17:50:00.038Z,89.11
2017-07-21T17:50:19.359Z,89.69
2017-07-21T17:50:38.198Z,89.4
2017-07-21T17:50:57.486Z,89.5
2017-07-21T17:51:16.336Z,90.47
2017-07-21T17:51:35.672Z,88.92
2017-07-21T17:51:54.944Z,87.16
2017-07-21T17:52:13.755Z,87.26
2017-07-21T17:52:33.282Z,87.07
2017-07-21T17:52:52.032Z,87.16
2017-07-21T17:53:11.407Z,87.26
2017-07-21T17:53:29.696Z,86.78
2017-07-21T17:53:48.990Z,85.9
2017-07-21T17:54:08.277Z,86
2017-07-21T17:54:27.550Z,85.18
2017-07-21T17:54:46.830Z,85.18
2017-07-21T17:55:06.150Z,84.75
2017-07-21T17:55:25.464Z,84.94
2017-07-21T17:55:44.768Z,85.24
2017-07-21T17:56:04.128Z,85.33
2017-07-21T17:56:22.544Z,84.56
2017-07-21T17:56:41.884Z,84.94
2017-07-21T17:57:01.223Z,85.63
2017-07-21T17:57:20.625Z,85.14
2017-07-21T17:57:39.508Z,86.01
2017-07-21T17:57:58.859Z,85.92
2017-07-21T17:58:17.719Z,85.78
2017-07-21T17:58:37.193Z,86.46
2017-07-21T17:58:56.527Z,86.94
2017-07-21T17:59:15.854Z,86.94
2017-07-21T17:59:35.146Z,87.23
2017-07-21T17:59:54.049Z,87.23
2017-07-21T18:00:13.326Z,87.68
2017-07-21T18:00:32.600Z,87.29
2017-07-21T18:00:51.632Z,87.68
2017-07-21T18:01:11.361Z,87.68
2017-07-21T18:01:30.177Z,87.87
2017-07-21T18:01:48.996Z,87.96
2017-07-21T18:02:08.301Z,87.77
2017-07-21T18:02:27.105Z,87.19
2017-07-21T18:02:46.387Z,87.48
2017-07-21T18:03:05.702Z,87.87
2017-07-21T18:03:24.978Z,87.58
2017-07-21T18:03:43.756Z,88.06
2017-07-21T18:04:02.007Z,87.91
2017-07-21T18:04:20.772Z,88.01
2017-07-21T18:04:40.121Z,86.99
2017-07-21T18:04:59.403Z,86.94
2017-07-21T18:05:17.660Z,87.13
2017-07-21T18:05:36.957Z,87.23
2017-07-21T18:05:56.449Z,87.13
2017-07-21T18:06:29.731Z,88.01
2017-07-21T18:06:48.530Z,88.4
2017-07-21T18:07:07.837Z,89.52
2017-07-21T18:07:26.616Z,89.32
2017-07-21T18:07:45.392Z,89.61
2017-07-21T18:08:04.668Z,88.88
2017-07-21T18:08:23.505Z,88.01
2017-07-21T18:08:42.305Z,87.04
2017-07-21T18:09:01.588Z,86.07
2017-07-21T18:09:20.373Z,85.78
2017-07-21T18:09:39.654Z,86.07
2017-07-21T18:09:58.954Z,85.88
2017-07-21T18:10:17.733Z,86.11
2017-07-21T18:10:36.530Z,86.07
2017-07-21T18:10:55.819Z,85.92
2017-07-21T18:11:14.607Z,85.72
2017-07-21T18:11:33.404Z,86.11
2017-07-21T18:11:52.217Z,86.26
2017-07-21T18:12:11.941Z,86.79
2017-07-21T18:12:31.205Z,85.72
2017-07-21T18:12:50.516Z,86.11
2017-07-21T18:13:09.816Z,85.72
2017-07-21T18:13:28.584Z,86.01
2017-07-21T18:13:46.843Z,85.72
2017-07-21T18:14:06.129Z,85.58
2017-07-21T18:14:25.401Z,85.68
2017-07-21T18:14:44.199Z,86.07
2017-07-21T18:15:03.477Z,85.88
2017-07-21T18:15:21.721Z,85.58
2017-07-21T18:15:41.024Z,85.49
2017-07-21T18:16:00.301Z,86.16
2017-07-21T18:16:19.706Z,86.26
2017-07-21T18:16:39.129Z,86.99
2017-07-21T18:16:58.408Z,87.19
2017-07-21T18:17:17.718Z,86.9
2017-07-21T18:17:37.056Z,87.33
2017-07-21T18:17:56.574Z,87.13
2017-07-21T18:18:15.905Z,86.94
2017-07-21T18:18:35.407Z,86.94
2017-07-21T18:18:54.200Z,87.37
2017-07-21T18:19:13.595Z,86.65
2017-07-21T18:19:32.447Z,86.65
2017-07-21T18:19:51.832Z,87.13
2017-07-21T18:20:26.601Z,86.94
2017-07-21T18:20:50.351Z,86.9
2017-07-21T18:21:09.686Z,86.85
2017-07-21T18:21:43.252Z,86.85
2017-07-21T18:22:02.737Z,86.99
2017-07-21T18:22:22.105Z,87.33
2017-07-21T18:22:40.904Z,87.33
2017-07-21T18:23:00.212Z,87.91
2017-07-21T18:23:19.515Z,87.33
2017-07-21T18:23:38.796Z,86.75
2017-07-21T18:23:58.134Z,87.13
2017-07-21T18:24:17.423Z,86.5
2017-07-21T18:24:36.695Z,86.85
2017-07-21T18:24:55.981Z,87.09
2017-07-21T18:25:15.342Z,87.72
2017-07-21T18:25:34.647Z,88.1
2017-07-21T18:25:53.925Z,87.72
2017-07-21T18:26:13.238Z,87.72
2017-07-21T18:26:32.605Z,87.82
2017-07-21T18:26:52.461Z,87.72
2017-07-21T18:27:11.905Z,87.82
2017-07-21T18:27:31.339Z,87.72
2017-07-21T18:27:51.061Z,88.01
2017-07-21T18:28:09.823Z,88.2
2017-07-21T18:28:29.116Z,88.49
2017-07-21T18:28:47.950Z,88.98
2017-07-21T18:29:06.215Z,89.27
2017-07-21T18:29:25.509Z,88.88
2017-07-21T18:29:44.829Z,89.27
2017-07-21T18:30:04.158Z,89.42
2017-07-21T18:30:23.481Z,89.47
2017-07-21T18:30:42.804Z,89.71
2017-07-21T18:31:01.597Z,90.2
2017-07-21T18:31:20.411Z,89.71
2017-07-21T18:31:39.752Z,89.32
2017-07-21T18:31:59.105Z,88.88
2017-07-21T18:32:18.404Z,88.3
2017-07-21T18:32:37.193Z,88.4
2017-07-21T18:32:56.504Z,88.01
2017-07-21T18:33:15.798Z,87.91
2017-07-21T18:33:34.056Z,87.43
2017-07-21T18:33:52.851Z,86.51
2017-07-21T18:34:12.158Z,86.99
2017-07-21T18:34:30.923Z,87.04
2017-07-21T18:34:49.695Z,87.33
2017-07-21T18:35:09.018Z,87.04
2017-07-21T18:35:28.325Z,86.85
2017-07-21T18:35:47.627Z,86.94
2017-07-21T18:36:06.409Z,87.04
2017-07-21T18:36:25.748Z,87.13
2017-07-21T18:36:44.529Z,87.47
2017-07-21T18:37:03.842Z,87.08
2017-07-21T18:37:22.615Z,87.27
2017-07-21T18:37:41.381Z,87.32
2017-07-21T18:38:00.682Z,86.79
2017-07-21T18:38:19.458Z,87.23
2017-07-21T18:38:38.760Z,87.08
2017-07-21T18:38:57.568Z,87.18
2017-07-21T18:39:16.382Z,85.78
2017-07-21T18:39:35.653Z,85.97
2017-07-21T18:39:54.963Z,86.26
2017-07-21T18:40:14.259Z,86.36
2017-07-21T18:40:33.579Z,86.85
2017-07-21T18:40:52.846Z,86.65
2017-07-21T18:41:12.129Z,87.13
2017-07-21T18:41:31.410Z,86.65
2017-07-21T18:41:50.759Z,87.04
2017-07-21T18:42:09.920Z,87.04
2017-07-21T18:42:29.225Z,87.52
2017-07-21T18:42:48.533Z,87.48
2017-07-21T18:43:07.836Z,87.77
2017-07-21T18:43:26.128Z,87.48
2017-07-21T18:43:45.465Z,88.12
2017-07-21T18:44:04.823Z,88.31
2017-07-21T18:44:24.396Z,88.31
2017-07-21T18:44:43.711Z,88.31
2017-07-21T18:45:03.045Z,89.13
2017-07-21T18:45:22.354Z,88.79
2017-07-21T18:45:41.697Z,89.37
2017-07-21T18:46:00.980Z,89.28
2017-07-21T18:46:19.260Z,89.47
2017-07-21T18:46:38.654Z,89.47
2017-07-21T18:46:57.925Z,89.28
2017-07-21T18:47:17.270Z,88.89
2017-07-21T18:47:36.590Z,89.28
2017-07-21T18:47:55.940Z,89.28
2017-07-21T18:48:15.257Z,89.62
2017-07-21T18:48:33.515Z,90.25
2017-07-21T18:48:52.284Z,90.06
2017-07-21T18:49:11.565Z,90.06
2017-07-21T18:49:30.893Z,89.76
2017-07-21T18:49:49.694Z,89.03
2017-07-21T18:50:08.502Z,89.13
2017-07-21T18:50:25.970Z,89.52
2017-07-21T18:50:45.225Z,89.13
2017-07-21T18:51:04.519Z,89.52
2017-07-21T18:51:24.282Z,89.81
2017-07-21T18:51:43.567Z,89.61
2017-07-21T18:52:02.390Z,89.9
2017-07-21T18:52:21.210Z,90.1
2017-07-21T18:52:40.518Z,89.32
2017-07-21T18:52:59.830Z,89.32
2017-07-21T18:53:18.853Z,89.23
2017-07-21T18:53:38.145Z,89.03
2017-07-21T18:53:57.419Z,89.03
2017-07-21T18:54:16.710Z,89.86
2017-07-21T18:54:35.514Z,89.32
2017-07-21T18:54:54.313Z,89.96
2017-07-21T18:55:13.621Z,89.67
2017-07-21T18:55:32.932Z,90.16
2017-07-21T18:55:52.261Z,90.78
2017-07-21T18:56:11.775Z,91.66
2017-07-21T18:56:30.026Z,91.75
2017-07-21T18:56:49.295Z,91.95
2017-07-21T18:57:08.591Z,91.75
2017-07-21T18:57:27.907Z,91.95
2017-07-21T18:57:46.748Z,92.14
2017-07-21T18:58:04.998Z,91.9
2017-07-21T18:58:23.757Z,92.05
2017-07-21T18:58:42.521Z,91.95
2017-07-21T18:59:01.822Z,92.43
2017-07-21T18:59:21.122Z,92.43
2017-07-21T18:59:40.411Z,92.82
2017-07-21T18:59:59.683Z,92.05
2017-07-21T19:00:18.437Z,92.05
2017-07-21T19:00:37.267Z,92.92
2017-07-21T19:00:56.052Z,91.95
2017-07-21T19:01:15.364Z,92.05
2017-07-21T19:01:34.724Z,92.24
2017-07-21T19:01:54.025Z,92.29
2017-07-21T19:02:13.337Z,92.58
2017-07-21T19:02:32.631Z,92.49
2017-07-21T19:02:51.425Z,91.71
2017-07-21T19:03:10.699Z,93.02
2017-07-21T19:03:29.510Z,92.72
2017-07-21T19:03:48.986Z,91.95
2017-07-21T19:04:08.693Z,91.75
2017-07-21T19:04:28.009Z,91.75
2017-07-21T19:04:46.914Z,92.82
2017-07-21T19:05:05.746Z,92.24
2017-07-21T19:05:25.036Z,92.63
2017-07-21T19:05:44.315Z,92.63
2017-07-21T19:06:03.114Z,92.63
2017-07-21T19:06:22.401Z,92.63
2017-07-21T19:06:41.718Z,92.58
2017-07-21T19:07:01.033Z,92.24
2017-07-21T19:07:20.556Z,92.43
2017-07-21T19:07:39.841Z,92.14
2017-07-21T19:07:58.644Z,91.85
2017-07-21T19:08:17.437Z,91.99
2017-07-21T19:08:36.763Z,91.61
2017-07-21T19:08:55.539Z,91.61
2017-07-21T19:09:14.791Z,92.24
2017-07-21T19:09:34.102Z,91.8
2017-07-21T19:09:52.928Z,92.09
2017-07-21T19:10:11.716Z,91.95
2017-07-21T19:10:31.018Z,91.89
2017-07-21T19:10:49.802Z,91.51
2017-07-21T19:11:08.615Z,91.46
2017-07-21T19:11:27.935Z,91.27
2017-07-21T19:11:46.745Z,91.36
2017-07-21T19:12:06.073Z,91.12
2017-07-21T19:12:25.384Z,91.41
2017-07-21T19:12:44.661Z,91.02
2017-07-21T19:13:02.956Z,90.64
2017-07-21T19:13:22.380Z,90.73
2017-07-21T19:13:41.222Z,90.73
2017-07-21T19:14:00.624Z,91.22
2017-07-21T19:14:19.162Z,91.22
2017-07-21T19:14:38.586Z,91.02
2017-07-21T19:14:57.450Z,91.07
2017-07-21T19:15:16.854Z,90.93
2017-07-21T19:15:35.617Z,91.31
2017-07-21T19:15:54.404Z,91.8
2017-07-21T19:16:27.717Z,91.61
2017-07-21T19:16:46.998Z,91.61
2017-07-21T19:17:06.413Z,91.85
2017-07-21T19:17:25.885Z,91.89
2017-07-21T19:17:45.188Z,92.09
2017-07-21T19:18:04.486Z,92.04
2017-07-21T19:18:23.759Z,91.85
2017-07-21T19:18:43.160Z,91.55
2017-07-21T19:19:02.453Z,91.46
2017-07-21T19:19:21.767Z,91.75
2017-07-21T19:19:41.061Z,91.65
2017-07-21T19:20:00.365Z,91.85
2017-07-21T19:20:18.150Z,91.55
2017-07-21T19:20:37.481Z,91.65
2017-07-21T19:20:56.792Z,91.55
2017-07-21T19:21:16.122Z,91.31
2017-07-21T19:21:35.437Z,91.6
2017-07-21T19:21:54.226Z,91.21
2017-07-21T19:22:13.052Z,91.94
2017-07-21T19:22:32.411Z,91.75
2017-07-21T19:22:51.236Z,92.48
2017-07-21T19:23:09.548Z,92.58
2017-07-21T19:23:28.828Z,92.29
2017-07-21T19:23:47.621Z,92.67
2017-07-21T19:24:06.392Z,92.92
2017-07-21T19:24:25.682Z,92.82
2017-07-21T19:24:44.970Z,92.24
2017-07-21T19:25:03.752Z,92.05
2017-07-21T19:25:22.581Z,92.1
2017-07-21T19:25:41.862Z,92.97
2017-07-21T19:26:01.141Z,92.77
2017-07-21T19:26:20.463Z,92.68
2017-07-21T19:26:39.757Z,92.58
2017-07-21T19:26:58.593Z,93.35
2017-07-21T19:27:17.415Z,93.35
2017-07-21T19:27:37.189Z,93.26
2017-07-21T19:27:56.486Z,93.45
2017-07-21T19:28:15.819Z,93.65
2017-07-21T19:28:35.225Z,92.83
2017-07-21T19:28:54.646Z,93.02
2017-07-21T19:29:13.935Z,93.21
2017-07-21T19:29:33.287Z,93.12
2017-07-21T19:29:52.655Z,93.31
2017-07-21T19:30:11.416Z,93.26
2017-07-21T19:30:30.799Z,93.31
2017-07-21T19:30:50.144Z,93.51
2017-07-21T19:31:09.433Z,93.65
2017-07-21T19:31:28.276Z,93.65
2017-07-21T19:31:47.648Z,93.35
2017-07-21T19:32:07.016Z,93.26
2017-07-21T19:32:25.827Z,92.68
2017-07-21T19:32:44.592Z,92.97
2017-07-21T19:33:03.901Z,92.92
2017-07-21T19:33:23.217Z,93.02
2017-07-21T19:33:42.618Z,92.53
2017-07-21T19:34:01.924Z,92.82
2017-07-21T19:34:21.287Z,92.63
2017-07-21T19:34:40.617Z,92.63
2017-07-21T19:34:58.862Z,92.24
2017-07-21T19:35:18.461Z,92.82
2017-07-21T19:35:37.792Z,92.43
2017-07-21T19:35:56.808Z,92.43
2017-07-21T19:36:16.108Z,92.92
2017-07-21T19:36:34.934Z,92.72
2017-07-21T19:36:54.270Z,92.63
2017-07-21T19:37:13.044Z,92.63
2017-07-21T19:37:31.851Z,92.72
2017-07-21T19:37:50.749Z,92.63
2017-07-21T19:38:09.611Z,92.63
2017-07-21T19:38:29.180Z,92.67
2017-07-21T19:38:48.915Z,92.63
2017-07-21T19:39:08.929Z,92.72
2017-07-21T19:39:28.736Z,93.21
2017-07-21T19:39:48.178Z,93.06
2017-07-21T19:40:06.946Z,92.67
2017-07-21T19:40:26.267Z,92.48
2017-07-21T19:40:45.535Z,92.38
2017-07-21T19:41:04.309Z,93.16
2017-07-21T19:41:23.624Z,92.77
2017-07-21T19:41:42.900Z,92.38
2017-07-21T19:42:02.326Z,92.67
2017-07-21T19:42:21.469Z,91.61
2017-07-21T19:42:40.392Z,91.41
2017-07-21T19:42:59.658Z,91.12
2017-07-21T19:43:18.982Z,91.22
2017-07-21T19:43:38.287Z,91.02
2017-07-21T19:43:57.691Z,90.98
2017-07-21T19:44:17.143Z,90.98
2017-07-21T19:44:37.815Z,91.61
2017-07-21T19:44:56.799Z,91.75
2017-07-21T19:45:16.594Z,92.33
2017-07-21T19:45:35.720Z,92.24
2017-07-21T19:45:54.543Z,92.38
2017-07-21T19:46:13.305Z,91.89
2017-07-21T19:46:32.663Z,92.53
2017-07-21T19:46:51.997Z,92.63
2017-07-21T19:47:11.316Z,92.33
2017-07-21T19:47:30.605Z,93.11
2017-07-21T19:47:49.381Z,92.82
2017-07-21T19:48:08.140Z,92.82
2017-07-21T19:48:27.433Z,93.4
2017-07-21T19:48:46.787Z,93.21
2017-07-21T19:49:06.156Z,93.4
2017-07-21T19:49:25.446Z,93.4
2017-07-21T19:49:44.831Z,93.79
2017-07-21T19:50:03.604Z,93.79
2017-07-21T19:50:56.638Z,94.18
2017-07-21T19:51:16.590Z,94.08
2017-07-21T19:51:50.598Z,94.23
2017-07-21T19:52:23.308Z,93.94
2017-07-21T19:52:42.761Z,94.71
2017-07-21T19:53:02.216Z,94.67
2017-07-21T19:53:21.350Z,94.9
2017-07-21T19:53:41.181Z,95.1
2017-07-21T19:54:01.934Z,95.15
2017-07-21T19:54:21.316Z,95.1
2017-07-21T19:55:08.957Z,95.39
2017-07-21T19:55:31.262Z,95.44
2017-07-21T19:55:50.296Z,95.15
2017-07-21T19:56:09.711Z,95.83
2017-07-21T19:56:29.094Z,96.12
2017-07-21T19:56:48.695Z,96.22
2017-07-21T19:57:08.096Z,96.07
2017-07-21T19:57:28.012Z,95.68
2017-07-21T19:57:46.928Z,96.46
2017-07-21T19:58:06.325Z,96.36
2017-07-21T19:58:25.654Z,96.94
2017-07-21T19:58:45.056Z,97.13
2017-07-21T19:59:04.435Z,96.89
2017-07-21T19:59:37.945Z,96.84
2017-07-21T19:59:57.371Z,97.04
2017-07-21T20:00:15.744Z,97.08
2017-07-21T20:00:34.635Z,96.7
2017-07-21T20:00:54.005Z,96.8
2017-07-21T20:01:13.466Z,96.22
2017-07-21T20:01:32.653Z,95.92
2017-07-21T20:01:52.090Z,95.83
2017-07-21T20:02:11.480Z,96.31
2017-07-21T20:02:29.227Z,96.22
2017-07-21T20:02:48.540Z,95.83
2017-07-21T20:03:07.366Z,96.41
2017-07-21T20:03:26.667Z,96.12
2017-07-21T20:03:45.436Z,95.97
2017-07-21T20:04:04.778Z,95.58
2017-07-21T20:04:24.167Z,95.58
2017-07-21T20:04:43.468Z,95.64
2017-07-21T20:05:02.782Z,95.87
2017-07-21T20:05:21.576Z,95.87
2017-07-21T20:05:40.390Z,96.26
2017-07-21T20:05:59.668Z,95.1
2017-07-21T20:06:18.937Z,94.86
2017-07-21T20:06:37.701Z,94.86
2017-07-21T20:06:56.502Z,94.96
2017-07-21T20:07:15.264Z,95.15
2017-07-21T20:07:33.574Z,95.05
2017-07-21T20:07:52.350Z,95.83
2017-07-21T20:08:11.173Z,95.83
2017-07-21T20:08:29.937Z,95.73
2017-07-21T20:08:48.823Z,95.54
2017-07-21T20:09:08.144Z,95.73
2017-07-21T20:09:27.548Z,95.73
2017-07-21T20:09:46.850Z,95.73
2017-07-21T20:10:06.152Z,95.64
2017-07-21T20:10:25.510Z,96.31
2017-07-21T20:10:44.303Z,96.22
2017-07-21T20:11:03.610Z,96.41
2017-07-21T20:11:22.905Z,95.54
2017-07-21T20:11:42.196Z,95.73
2017-07-21T20:12:01.497Z,95.73
2017-07-21T20:12:20.799Z,95.44
2017-07-21T20:12:39.611Z,95.83
2017-07-21T20:12:58.411Z,95.92
2017-07-21T20:13:17.697Z,95.05
2017-07-21T20:13:37.009Z,94.47
2017-07-21T20:13:56.302Z,94.37
2017-07-21T20:14:15.663Z,95.05
2017-07-21T20:14:35.012Z,95.44
2017-07-21T20:14:53.783Z,95.54
2017-07-21T20:15:13.089Z,95.73
2017-07-21T20:15:32.375Z,94.86
2017-07-21T20:15:51.700Z,94.67
2017-07-21T20:16:11.024Z,94.43
2017-07-21T20:16:30.389Z,94.52
2017-07-21T20:16:49.193Z,94.23
2017-07-21T20:17:08.489Z,94.13
2017-07-21T20:17:28.004Z,94.62
2017-07-21T20:17:47.293Z,94.43
2017-07-21T20:18:06.583Z,94.04
2017-07-21T20:18:25.979Z,94.71
2017-07-21T20:18:45.271Z,94.43
2017-07-21T20:19:04.573Z,94.91
2017-07-21T20:19:23.329Z,94.71
2017-07-21T20:19:42.158Z,95.2
2017-07-21T20:20:01.484Z,95.01
2017-07-21T20:20:20.834Z,95.1
2017-07-21T20:20:40.161Z,95.2
2017-07-21T20:20:58.994Z,95.49
2017-07-21T20:21:18.299Z,95.2
2017-07-21T20:21:36.581Z,95.29
2017-07-21T20:21:55.901Z,95.87
2017-07-21T20:22:15.231Z,95.68
2017-07-21T20:22:34.577Z,95.68
2017-07-21T20:22:53.854Z,95.68
2017-07-21T20:23:13.196Z,96.17
2017-07-21T20:23:32.589Z,95.68
2017-07-21T20:23:52.000Z,95.97
2017-07-21T20:24:11.303Z,96.07
2017-07-21T20:24:30.577Z,95.68
2017-07-21T20:24:49.337Z,95.49
2017-07-21T20:25:08.649Z,96.26
2017-07-21T20:25:27.537Z,96.07
2017-07-21T20:25:46.312Z,96.07
2017-07-21T20:26:05.702Z,96.36
2017-07-21T20:26:24.484Z,96.55
2017-07-21T20:26:43.878Z,96.89
2017-07-21T20:27:02.678Z,96.7
2017-07-21T20:27:21.481Z,96.51
2017-07-21T20:27:40.822Z,96.99
2017-07-21T20:27:59.576Z,96.89
2017-07-21T20:28:18.914Z,96.51
2017-07-21T20:28:37.789Z,96.51
2017-07-21T20:28:56.681Z,96.99
2017-07-21T20:29:15.516Z,97.18
2017-07-21T20:29:35.076Z,96.89
2017-07-21T20:29:54.366Z,97.09
2017-07-21T20:30:13.666Z,97.18
2017-07-21T20:30:32.966Z,96.89
2017-07-21T20:30:51.785Z,97.57
2017-07-21T20:31:10.556Z,97.09
2017-07-21T20:31:29.856Z,96.99
2017-07-21T20:31:48.700Z,96.84
2017-07-21T20:32:06.970Z,97.42
2017-07-21T20:32:25.742Z,97.91
2017-07-21T20:32:45.076Z,98
2017-07-21T20:33:04.354Z,98.39
2017-07-21T20:33:23.643Z,98.3
2017-07-21T20:33:42.419Z,98.1
2017-07-21T20:34:01.721Z,97.81
2017-07-21T20:34:20.993Z,98.39
2017-07-21T20:34:39.313Z,98.2
2017-07-21T20:34:58.581Z,98.49
2017-07-21T20:35:17.884Z,98.39
2017-07-21T20:35:37.147Z,98.3
2017-07-21T20:35:55.441Z,98.39
2017-07-21T20:36:14.738Z,98.3
2017-07-21T20:36:34.049Z,98.68
2017-07-21T20:36:52.405Z,98.78
2017-07-21T20:37:11.196Z,98.78
2017-07-21T20:37:29.981Z,98.58
2017-07-21T20:37:49.327Z,98.88
2017-07-21T20:38:08.684Z,99.07
2017-07-21T20:38:28.190Z,99.36
2017-07-21T20:38:46.485Z,99.16
2017-07-21T20:39:05.856Z,99.07
2017-07-21T20:39:25.228Z,99.36
2017-07-21T20:39:44.021Z,98.88
2017-07-21T20:40:03.430Z,99.21
2017-07-21T20:40:22.771Z,99.11
2017-07-21T20:40:42.137Z,99.07
2017-07-21T20:41:01.477Z,99.5
2017-07-21T20:41:20.294Z,99.55
2017-07-21T20:41:39.619Z,99.5
2017-07-21T20:41:58.887Z,99.26
2017-07-21T20:42:18.233Z,99.6
2017-07-21T20:42:37.072Z,99.5
2017-07-21T20:42:55.413Z,99.79
2017-07-21T20:43:14.763Z,99.5
2017-07-21T20:43:34.068Z,99.6
2017-07-21T20:43:52.858Z,99.5
2017-07-21T20:44:12.136Z,99.5
2017-07-21T20:44:30.374Z,99.69
2017-07-21T20:44:49.635Z,99.79
2017-07-21T20:45:08.390Z,99.99
2017-07-21T20:45:27.663Z,99.69
2017-07-21T20:45:46.980Z,99.6
2017-07-21T20:46:05.793Z,99.5
2017-07-21T20:46:25.093Z,99.69
2017-07-21T20:46:43.877Z,99.99
2017-07-21T20:47:02.621Z,99.69
2017-07-21T20:47:21.960Z,99.89
2017-07-21T20:47:41.264Z,99.69
2017-07-21T20:48:00.549Z,99.99
2017-07-21T20:48:18.795Z,99.79
2017-07-21T20:48:38.145Z,99.99
2017-07-21T20:48:56.976Z,99.55
2017-07-21T20:49:16.263Z,99.99
2017-07-21T20:49:35.589Z,99.74
2017-07-21T20:50:08.925Z,99.84
2017-07-21T20:50:27.708Z,99.94
2017-07-21T20:50:47.034Z,99.84
2017-07-21T20:51:05.288Z,99.36
2017-07-21T20:51:24.622Z,99.45
2017-07-21T20:51:43.950Z,98.88
2017-07-21T20:52:02.238Z,98.78
2017-07-21T20:52:21.519Z,98.97
2017-07-21T20:52:40.812Z,98.97
2017-07-21T20:53:00.068Z,99.16
2017-07-21T20:53:18.836Z,98.78
2017-07-21T20:53:38.117Z,98.78
2017-07-21T20:53:56.930Z,99.07
2017-07-21T20:54:16.226Z,98.97
2017-07-21T20:54:35.526Z,99.07
2017-07-21T20:54:54.352Z,99.26
2017-07-21T20:55:13.622Z,99.26
2017-07-21T20:55:32.386Z,99.55
2017-07-21T20:55:51.672Z,99.07
2017-07-21T20:56:10.458Z,99.55
2017-07-21T20:56:29.230Z,99.99
2017-07-21T20:56:48.564Z,99.94
2017-07-21T20:57:07.831Z,99.74
2017-07-21T20:57:26.197Z,99.55
2017-07-21T20:57:45.466Z,99.45
2017-07-21T20:58:04.791Z,99.65
2017-07-21T20:58:23.605Z,99.45
2017-07-21T20:58:42.376Z,99.65
2017-07-21T20:59:01.155Z,99.65
2017-07-21T20:59:19.939Z,99.55
2017-07-21T20:59:38.711Z,99.45
2017-07-21T20:59:58.022Z,99.55
2017-07-21T21:00:16.288Z,99.36
2017-07-21T21:00:35.575Z,99.26
2017-07-21T21:00:54.887Z,99.55
2017-07-21T21:01:13.157Z,99.45
2017-07-21T21:01:32.461Z,99.45
2017-07-21T21:01:51.755Z,99.45
2017-07-21T21:02:10.021Z,99.55
2017-07-21T21:02:29.329Z,99.65
2017-07-21T21:02:47.594Z,99.65
2017-07-21T21:03:05.842Z,99.45
2017-07-21T21:03:25.110Z,99.65
2017-07-21T21:03:44.493Z,99.55
2017-07-21T21:04:03.284Z,99.99
2017-07-21T21:04:22.595Z,99.84
2017-07-21T21:04:41.883Z,99.65
2017-07-21T21:05:01.172Z,99.45
2017-07-21T21:05:20.459Z,99.45
2017-07-21T21:05:39.766Z,99.65
2017-07-21T21:05:59.045Z,99.94
2017-07-21T21:06:18.356Z,99.99
2017-07-21T21:06:37.635Z,99.99
2017-07-21T21:06:56.924Z,99.99
2017-07-21T21:07:15.683Z,99.99
2017-07-21T21:07:34.979Z,99.79
2017-07-21T21:07:54.281Z,99.74
2017-07-21T21:08:13.590Z,99.69
2017-07-21T21:08:31.840Z,99.69
2017-07-21T21:08:51.100Z,99.4
2017-07-21T21:09:10.393Z,99.99
2017-07-21T21:09:29.727Z,99.99
2017-07-21T21:09:48.488Z,99.99
2017-07-21T21:10:07.804Z,99.99
2017-07-21T21:10:26.105Z,99.99
2017-07-21T21:10:45.419Z,99.99
2017-07-21T21:11:04.735Z,99.99
2017-07-21T21:11:24.046Z,99.99
2017-07-21T21:11:43.504Z,99.99
2017-07-21T21:12:02.770Z,99.99
2017-07-21T21:12:22.063Z,99.99
2017-07-21T21:12:40.864Z,99.99
2017-07-21T21:13:00.276Z,99.99
2017-07-21T21:13:19.588Z,99.99
2017-07-21T21:13:38.905Z,99.99
2017-07-21T21:13:58.203Z,99.99
2017-07-21T21:14:17.031Z,99.99
2017-07-21T21:14:36.309Z,99.99
2017-07-21T21:14:55.594Z,99.99
2017-07-21T21:15:14.905Z,99.99
2017-07-21T21:15:34.198Z,99.99
2017-07-21T21:15:53.574Z,99.99
2017-07-21T21:16:12.973Z,99.99
2017-07-21T21:16:31.734Z,99.99
2017-07-21T21:16:51.013Z,99.99
2017-07-21T21:17:10.346Z,99.99
2017-07-21T21:17:29.648Z,99.99
2017-07-21T21:17:49.052Z,99.99
2017-07-21T21:18:08.410Z,99.99
2017-07-21T21:18:27.708Z,99.99
2017-07-21T21:18:46.731Z,99.99
2017-07-21T21:19:05.560Z,99.99
2017-07-21T21:19:24.963Z,99.99
2017-07-21T21:19:44.266Z,99.99